createdAt,value
2022-11-21T00:01:31.212Z,1.60
2022-11-21T00:04:00.762Z,1.13
2022-11-21T00:06:29.892Z,1.25
2022-11-21T00:09:00.130Z,2.53
2022-11-21T00:11:29.302Z,1.20
2022-11-21T00:14:00.407Z,1.70
2022-11-21T00:16:30.435Z,1.27
2022-11-21T00:19:01.175Z,1.50
2022-11-21T00:21:30.383Z,1.88
2022-11-21T00:24:00.574Z,1.58
2022-11-21T00:26:29.829Z,1.50
2022-11-21T00:28:59.013Z,1.73
2022-11-21T00:31:28.030Z,1.65
2022-11-21T00:33:57.172Z,1.50
2022-11-21T00:36:28.024Z,1.27
2022-11-21T00:38:56.004Z,1.67
2022-11-21T00:41:25.323Z,1.23
2022-11-21T00:43:54.337Z,1.02
2022-11-21T00:46:23.617Z,1.73
2022-11-21T00:48:53.038Z,1.08
2022-11-21T00:51:22.497Z,2.05
2022-11-21T00:53:53.187Z,1.75
2022-11-21T00:56:22.375Z,1.70
2022-11-21T00:58:51.510Z,1.48
2022-11-21T01:01:20.654Z,1.75
2022-11-21T01:03:50.091Z,1.92
2022-11-21T01:06:19.425Z,1.40
2022-11-21T01:08:48.822Z,0.98
2022-11-21T01:11:20.120Z,4.72
2022-11-21T01:13:49.512Z,1.83
2022-11-21T01:16:19.359Z,2.53
2022-11-21T01:18:48.318Z,2.53
2022-11-21T01:21:16.973Z,1.70
2022-11-21T01:23:45.983Z,2.38
2022-11-21T01:26:16.364Z,1.90
2022-11-21T01:28:47.057Z,1.10
2022-11-21T01:31:15.819Z,2.42
2022-11-21T01:33:45.332Z,1.20
2022-11-21T01:36:15.251Z,1.52
2022-11-21T01:38:45.496Z,1.90
2022-11-21T01:41:16.358Z,1.80
2022-11-21T01:43:47.794Z,1.75
2022-11-21T01:46:17.555Z,1.60
2022-11-21T01:48:49.381Z,1.85
2022-11-21T01:51:21.836Z,1.40
2022-11-21T01:53:53.552Z,1.15
2022-11-21T01:56:22.719Z,1.75
2022-11-21T01:58:53.194Z,2.13
2022-11-21T02:01:22.695Z,4.20
2022-11-21T02:03:51.876Z,1.60
2022-11-21T02:06:19.793Z,2.00
2022-11-21T02:08:48.811Z,1.40
2022-11-21T02:11:21.823Z,1.23
2022-11-21T02:13:52.415Z,1.60
2022-11-21T02:16:21.870Z,1.38
2022-11-21T02:18:49.834Z,1.55
2022-11-21T02:21:26.895Z,1.70
2022-11-21T02:24:00.478Z,2.25
2022-11-21T02:26:30.192Z,1.00
2022-11-21T02:29:41.502Z,1.35
2022-11-21T02:32:11.002Z,1.30
2022-11-21T02:34:39.042Z,2.00
2022-11-21T02:37:09.871Z,1.40
2022-11-21T02:39:37.804Z,1.60
2022-11-21T02:42:10.826Z,2.13
2022-11-21T02:44:43.831Z,1.05
2022-11-21T02:47:12.723Z,1.73
2022-11-21T02:49:43.807Z,1.60
2022-11-21T02:52:12.789Z,1.95
2022-11-21T02:54:40.745Z,2.10
2022-11-21T02:57:10.071Z,1.42
2022-11-21T02:59:37.941Z,1.35
2022-11-21T03:02:06.902Z,6.00
2022-11-21T03:04:35.960Z,1.48
2022-11-21T03:07:03.985Z,2.80
2022-11-21T03:09:34.378Z,1.83
2022-11-21T03:12:09.188Z,1.30
2022-11-21T03:14:38.289Z,1.23
2022-11-21T03:17:07.267Z,1.60
2022-11-21T03:19:36.519Z,1.30
2022-11-21T03:22:04.427Z,1.55
2022-11-21T03:24:33.771Z,1.75
2022-11-21T03:27:01.696Z,1.73
2022-11-21T03:29:31.050Z,1.80
2022-11-21T03:31:59.021Z,2.50
2022-11-21T03:34:27.134Z,1.67
2022-11-21T03:36:55.255Z,1.45
2022-11-21T03:39:24.754Z,1.25
2022-11-21T03:41:54.005Z,1.40
2022-11-21T03:44:23.221Z,2.10
2022-11-21T03:46:53.865Z,1.98
2022-11-21T03:49:23.064Z,2.35
2022-11-21T03:51:52.299Z,2.30
2022-11-21T03:54:21.560Z,1.60
2022-11-21T03:56:50.561Z,2.10
2022-11-21T03:59:18.581Z,1.65
2022-11-21T04:01:47.734Z,1.63
2022-11-21T04:04:18.827Z,1.65
2022-11-21T04:06:48.158Z,2.40
2022-11-21T04:09:16.134Z,2.28
2022-11-21T04:11:45.088Z,1.92
2022-11-21T04:14:14.281Z,1.73
2022-11-21T04:16:42.418Z,2.20
2022-11-21T04:19:11.785Z,1.50
2022-11-21T04:21:42.218Z,1.58
2022-11-21T04:24:11.301Z,1.77
2022-11-21T04:26:40.862Z,1.75
2022-11-21T04:29:10.229Z,2.58
2022-11-21T04:31:39.639Z,1.70
2022-11-21T04:34:08.705Z,1.92
2022-11-21T04:36:40.752Z,1.55
2022-11-21T04:39:14.983Z,3.80
2022-11-21T04:41:43.951Z,1.98
2022-11-21T04:44:13.181Z,2.08
2022-11-21T04:46:42.726Z,1.90
2022-11-21T04:49:11.924Z,1.92
2022-11-21T04:51:40.965Z,1.45
2022-11-21T04:54:11.942Z,2.28
2022-11-21T04:56:40.926Z,1.70
2022-11-21T04:59:12.021Z,2.53
2022-11-21T05:01:41.256Z,2.00
2022-11-21T05:04:10.183Z,1.67
2022-11-21T05:06:39.488Z,1.90
2022-11-21T05:09:08.494Z,1.50
2022-11-21T05:12:09.147Z,1.70
2022-11-21T05:14:37.044Z,2.28
2022-11-21T05:17:05.422Z,1.70
2022-11-21T05:19:34.945Z,2.13
2022-11-21T05:22:03.986Z,2.03
2022-11-21T05:24:33.695Z,2.10
2022-11-21T05:27:03.034Z,2.72
2022-11-21T05:29:32.422Z,1.80
2022-11-21T05:32:00.306Z,1.50
2022-11-21T05:34:28.438Z,1.55
2022-11-21T05:36:57.718Z,1.67
2022-11-21T05:39:31.380Z,1.23
2022-11-21T05:42:02.934Z,1.63
2022-11-21T05:44:31.700Z,3.03
2022-11-21T05:46:59.612Z,1.80
2022-11-21T05:49:27.610Z,2.42
2022-11-21T05:51:55.544Z,4.30
2022-11-21T05:54:23.522Z,2.80
2022-11-21T05:56:51.456Z,2.95
2022-11-21T05:59:39.330Z,2.05
2022-11-21T06:02:24.510Z,2.35
2022-11-21T06:04:52.510Z,3.63
2022-11-21T06:07:20.528Z,3.15
2022-11-21T06:09:48.546Z,1.83
2022-11-21T06:12:16.429Z,1.98
2022-11-21T06:14:45.768Z,1.95
2022-11-21T06:17:14.039Z,1.90
2022-11-21T06:19:41.981Z,2.03
2022-11-21T06:22:09.881Z,1.88
2022-11-21T06:24:37.790Z,2.72
2022-11-21T06:27:05.710Z,1.80
2022-11-21T06:29:46.938Z,1.92
2022-11-21T06:32:16.069Z,1.92
2022-11-21T06:34:44.020Z,2.47
2022-11-21T06:37:11.970Z,2.72
2022-11-21T06:39:39.938Z,1.98
2022-11-21T06:42:08.012Z,1.90
2022-11-21T06:44:35.973Z,1.83
2022-11-21T06:47:05.374Z,1.83
2022-11-21T06:49:33.292Z,2.08
2022-11-21T06:52:01.162Z,2.20
2022-11-21T06:54:29.393Z,1.70
2022-11-21T06:56:59.173Z,3.97
2022-11-21T06:59:27.050Z,2.00
2022-11-21T07:01:56.382Z,4.40
2022-11-21T07:04:26.029Z,2.35
2022-11-21T07:06:54.174Z,2.15
2022-11-21T07:09:37.408Z,5.57
2022-11-21T07:12:19.665Z,3.22
2022-11-21T07:14:47.563Z,2.42
2022-11-21T07:17:18.233Z,7.32
2022-11-21T07:19:47.569Z,3.00
2022-11-21T07:22:15.668Z,2.15
2022-11-21T07:24:43.637Z,2.85
2022-11-21T07:27:11.605Z,5.68
2022-11-21T07:29:39.518Z,2.13
2022-11-21T07:32:07.518Z,1.67
2022-11-21T07:34:35.478Z,2.22
2022-11-21T07:37:05.404Z,1.77
2022-11-21T07:39:33.452Z,3.47
2022-11-21T07:42:01.434Z,1.70
2022-11-21T07:44:29.316Z,1.65
2022-11-21T07:46:57.297Z,2.83
2022-11-21T07:49:25.331Z,2.03
2022-11-21T07:51:53.331Z,2.58
2022-11-21T07:54:22.616Z,1.67
2022-11-21T07:56:51.800Z,2.35
2022-11-21T07:59:20.093Z,1.63
2022-11-21T08:01:48.219Z,3.75
2022-11-21T08:04:16.256Z,2.95
2022-11-21T08:06:44.549Z,2.28
2022-11-21T08:09:12.485Z,5.05
2022-11-21T08:11:41.924Z,6.47
2022-11-21T08:14:09.776Z,2.60
2022-11-21T08:16:37.738Z,6.28
2022-11-21T08:19:06.678Z,1.98
2022-11-21T08:21:34.659Z,2.22
2022-11-21T08:24:03.023Z,1.70
2022-11-21T08:26:31.009Z,2.55
2022-11-21T08:29:00.380Z,2.53
2022-11-21T08:31:28.290Z,3.42
2022-11-21T08:33:57.270Z,2.22
2022-11-21T08:36:25.241Z,4.15
2022-11-21T08:38:53.157Z,2.30
2022-11-21T08:41:52.765Z,1.88
2022-11-21T08:44:22.097Z,1.92
2022-11-21T08:46:50.010Z,2.03
2022-11-21T08:49:17.862Z,1.98
2022-11-21T08:51:47.649Z,2.15
2022-11-21T08:54:15.515Z,1.60
2022-11-21T08:56:43.894Z,2.35
2022-11-21T08:59:11.825Z,2.55
2022-11-21T09:01:41.227Z,1.92
2022-11-21T09:04:09.191Z,1.85
2022-11-21T09:06:37.299Z,2.00
2022-11-21T09:09:05.993Z,1.52
2022-11-21T09:11:33.944Z,2.30
2022-11-21T09:14:19.521Z,1.85
2022-11-21T09:17:21.315Z,3.72
2022-11-21T09:19:49.244Z,2.17
2022-11-21T09:22:17.182Z,1.92
2022-11-21T09:24:45.054Z,1.77
2022-11-21T09:27:12.972Z,1.80
2022-11-21T09:29:40.915Z,1.30
2022-11-21T09:32:10.411Z,1.40
2022-11-21T09:34:38.386Z,2.55
2022-11-21T09:37:06.333Z,1.65
2022-11-21T09:39:35.555Z,3.22
2022-11-21T09:42:11.319Z,4.28
2022-11-21T09:44:51.008Z,4.97
2022-11-21T09:47:24.041Z,2.03
2022-11-21T09:49:56.442Z,3.08
2022-11-21T09:52:25.580Z,3.85
2022-11-21T09:54:55.600Z,1.55
2022-11-21T09:57:24.526Z,2.35
2022-11-21T09:59:52.539Z,3.38
2022-11-21T10:03:22.139Z,2.05
2022-11-21T10:05:53.755Z,2.08
2022-11-21T10:08:29.491Z,3.08
2022-11-21T10:10:58.814Z,1.55
2022-11-21T10:13:36.751Z,1.65
2022-11-21T10:17:30.570Z,2.00
2022-11-21T10:20:24.711Z,2.70
2022-11-21T10:23:16.357Z,4.78
2022-11-21T10:25:46.934Z,9.13
2022-11-21T10:28:18.122Z,2.20
2022-11-21T10:30:46.532Z,4.32
2022-11-21T10:33:15.914Z,3.17
2022-11-21T10:35:45.181Z,6.40
2022-11-21T10:38:20.887Z,6.57
2022-11-21T10:40:50.298Z,6.05
2022-11-21T10:43:43.266Z,6.15
2022-11-21T10:46:11.197Z,7.50
2022-11-21T10:48:39.739Z,9.77
2022-11-21T10:51:16.403Z,5.20
2022-11-21T10:54:07.845Z,4.90
2022-11-21T10:56:37.877Z,9.63
2022-11-21T10:59:13.459Z,5.38
2022-11-21T11:02:01.261Z,2.10
2022-11-21T11:04:33.516Z,3.55
2022-11-21T11:07:21.643Z,4.53
2022-11-21T11:09:52.559Z,4.00
2022-11-21T11:12:26.321Z,2.92
2022-11-21T11:14:56.711Z,3.22
2022-11-21T11:17:33.534Z,3.83
2022-11-21T11:20:03.341Z,2.63
2022-11-21T11:22:32.222Z,5.45
2022-11-21T11:25:02.113Z,2.28
2022-11-21T11:27:30.875Z,1.83
2022-11-21T11:29:58.806Z,3.50
2022-11-21T11:32:27.483Z,1.85
2022-11-21T11:34:59.462Z,2.15
2022-11-21T11:37:39.808Z,6.88
2022-11-21T11:40:20.466Z,3.70
2022-11-21T11:43:33.368Z,3.38
2022-11-21T11:46:36.296Z,2.53
2022-11-21T11:49:22.076Z,2.90
2022-11-21T11:51:52.187Z,6.00
2022-11-21T11:54:21.842Z,2.65
2022-11-21T11:56:51.190Z,2.58
2022-11-21T11:59:22.483Z,1.90
2022-11-21T12:02:08.882Z,2.30
2022-11-21T12:04:43.013Z,3.25
2022-11-21T12:08:33.024Z,2.05
2022-11-21T12:10:06.915Z,6.40
2022-11-21T12:12:38.155Z,2.95
2022-11-21T12:15:30.418Z,4.30
2022-11-21T12:18:11.712Z,6.63
2022-11-21T12:20:44.286Z,8.43
2022-11-21T12:23:12.836Z,8.25
2022-11-21T12:25:43.038Z,3.15
2022-11-21T12:28:17.082Z,3.38
2022-11-21T12:30:50.870Z,1.83
2022-11-21T12:33:22.406Z,5.10
2022-11-21T12:36:17.278Z,3.58
2022-11-21T12:39:11.447Z,4.72
2022-11-21T12:41:58.581Z,1.92
2022-11-21T12:44:38.787Z,4.00
2022-11-21T12:47:15.508Z,2.30
2022-11-21T12:50:10.940Z,2.17
2022-11-21T12:52:59.292Z,3.58
2022-11-21T12:55:35.604Z,3.20
2022-11-21T12:58:10.794Z,4.25
2022-11-21T13:00:47.962Z,3.53
2022-11-21T13:03:34.644Z,6.53
2022-11-21T13:06:02.551Z,5.45
2022-11-21T13:08:32.752Z,2.67
2022-11-21T13:11:27.980Z,6.53
2022-11-21T13:14:01.499Z,7.13
2022-11-21T13:28:52.397Z,2.83
2022-11-21T13:39:33.456Z,3.45
2022-11-21T13:42:23.553Z,3.67
2022-11-21T13:44:53.579Z,4.28
2022-11-21T13:55:29.251Z,3.83
2022-11-21T13:58:02.746Z,3.25
2022-11-21T14:00:44.686Z,4.78
2022-11-21T14:07:34.948Z,5.03
2022-11-21T14:10:04.026Z,5.88
2022-11-21T14:12:36.160Z,6.78
2022-11-21T14:15:21.372Z,9.60
2022-11-21T14:17:51.228Z,3.58
2022-11-21T14:20:22.035Z,5.25
2022-11-21T14:23:00.107Z,2.28
2022-11-21T14:25:47.281Z,4.03
2022-11-21T14:28:17.804Z,3.30
2022-11-21T14:30:46.603Z,1.95
2022-11-21T14:33:26.360Z,2.13
2022-11-21T14:35:56.234Z,4.88
2022-11-21T14:38:24.104Z,2.25
2022-11-21T14:40:52.674Z,2.58
2022-11-21T14:43:38.541Z,3.83
2022-11-21T14:46:07.148Z,4.00
2022-11-21T14:48:37.722Z,6.32
2022-11-21T14:51:06.425Z,3.63
2022-11-21T14:53:34.378Z,2.25
2022-11-21T14:56:02.764Z,4.38
2022-11-21T14:58:30.753Z,3.10
2022-11-21T15:01:06.260Z,2.72
2022-11-21T15:07:32.068Z,4.57
2022-11-21T15:12:52.735Z,3.85
2022-11-21T15:15:26.842Z,4.28
2022-11-21T15:18:27.464Z,3.10
2022-11-21T15:21:09.894Z,3.67
2022-11-21T15:23:43.130Z,6.22
2022-11-21T15:26:29.539Z,2.75
2022-11-21T15:28:58.466Z,2.50
2022-11-21T15:31:27.134Z,3.47
2022-11-21T15:37:04.133Z,10.63
2022-11-21T15:39:34.388Z,9.95
2022-11-21T15:42:29.738Z,9.75
2022-11-21T15:45:01.374Z,8.20
2022-11-21T15:47:29.692Z,8.75
2022-11-21T15:49:58.723Z,8.60
2022-11-21T15:52:26.754Z,10.20
2022-11-21T15:54:56.780Z,40.63
2022-11-21T15:57:24.796Z,49.40
2022-11-21T15:59:53.752Z,44.75
2022-11-21T16:02:21.689Z,44.10
2022-11-21T16:04:50.227Z,42.25
2022-11-21T16:07:18.322Z,35.38
2022-11-21T16:09:47.981Z,38.13
2022-11-21T16:12:17.358Z,35.92
2022-11-21T16:14:46.980Z,31.92
2022-11-21T16:17:15.719Z,31.00
2022-11-21T16:19:43.710Z,29.52
2022-11-21T16:22:12.294Z,28.98
2022-11-21T16:24:40.259Z,27.27
2022-11-21T16:27:08.846Z,26.55
2022-11-21T16:29:39.163Z,22.00
2022-11-21T16:32:08.193Z,25.60
2022-11-21T16:34:36.315Z,22.92
2022-11-21T16:37:07.478Z,22.77
2022-11-21T16:39:36.182Z,26.95
2022-11-21T16:42:05.122Z,21.10
2022-11-21T16:44:33.274Z,22.88
2022-11-21T16:47:08.265Z,20.58
2022-11-21T16:49:36.838Z,18.73
2022-11-21T16:52:05.724Z,24.75
2022-11-21T16:54:33.863Z,20.42
2022-11-21T16:57:02.749Z,18.85
2022-11-21T16:59:31.452Z,19.13
2022-11-21T17:02:01.034Z,17.33
2022-11-21T17:04:30.763Z,17.02
2022-11-21T17:07:03.112Z,16.20
2022-11-21T17:09:31.110Z,17.52
2022-11-21T17:12:00.561Z,13.93
2022-11-21T17:14:28.874Z,16.00
2022-11-21T17:20:23.011Z,13.32
2022-11-21T17:22:51.062Z,12.13
2022-11-21T17:25:19.027Z,14.05
2022-11-21T17:27:47.626Z,13.15
2022-11-21T17:30:15.919Z,12.90
2022-11-21T17:32:47.027Z,11.32
2022-11-21T17:35:15.069Z,11.57
2022-11-21T17:37:45.210Z,10.10
2022-11-21T17:40:13.980Z,9.25
2022-11-21T17:42:44.532Z,9.38
2022-11-21T17:45:12.551Z,9.90
2022-11-21T17:47:42.679Z,11.07
2022-11-21T17:50:10.618Z,7.90
2022-11-21T17:52:40.270Z,10.32
2022-11-21T17:55:09.670Z,9.43
2022-11-21T17:57:39.318Z,7.72
2022-11-21T18:00:08.498Z,9.60
2022-11-21T18:02:37.434Z,6.82
2022-11-21T18:05:06.188Z,6.88
2022-11-21T18:07:36.141Z,7.38
2022-11-21T18:10:27.459Z,6.97
2022-11-21T18:12:54.181Z,6.07
2022-11-21T18:15:22.093Z,7.85
2022-11-21T18:18:01.915Z,6.38
2022-11-21T18:20:29.834Z,6.38
2022-11-21T18:23:00.061Z,5.75
2022-11-21T18:25:27.983Z,5.50
2022-11-21T18:27:58.184Z,5.75
2022-11-21T18:30:26.947Z,5.57
2022-11-21T18:32:55.640Z,5.50
2022-11-21T18:35:23.586Z,4.93
2022-11-21T18:37:53.034Z,5.88
2022-11-21T18:40:21.044Z,4.43
2022-11-21T18:42:49.676Z,5.50
2022-11-21T18:45:18.981Z,4.03
2022-11-21T18:47:48.408Z,4.93
2022-11-21T18:50:17.110Z,4.35
2022-11-21T18:52:46.924Z,3.85
2022-11-21T18:55:15.579Z,4.03
2022-11-21T18:57:45.053Z,3.72
2022-11-21T19:00:14.001Z,4.18
2022-11-21T19:03:14.108Z,3.70
2022-11-21T19:05:42.363Z,3.85
2022-11-21T19:08:11.002Z,4.20
2022-11-21T19:10:43.615Z,3.00
2022-11-21T19:13:13.097Z,3.00
2022-11-21T19:15:42.875Z,4.30
2022-11-21T19:18:13.113Z,3.63
2022-11-21T19:20:42.052Z,3.53
2022-11-21T19:23:11.084Z,3.03
2022-11-21T19:25:39.076Z,3.90
2022-11-21T19:28:08.444Z,3.78
2022-11-21T19:30:37.010Z,4.50
2022-11-21T19:33:05.759Z,4.50
2022-11-21T19:35:35.126Z,3.33
2022-11-21T19:38:03.764Z,2.92
2022-11-21T19:40:51.800Z,3.00
2022-11-21T19:43:21.299Z,4.50
2022-11-21T19:45:55.051Z,2.97
2022-11-21T19:48:26.431Z,3.35
2022-11-21T19:50:58.911Z,3.05
2022-11-21T19:53:27.658Z,3.63
2022-11-21T19:55:55.527Z,3.10
2022-11-21T19:58:25.392Z,2.92
2022-11-21T20:00:53.302Z,3.17
2022-11-21T20:03:23.145Z,3.05
2022-11-21T20:05:52.042Z,2.78
2022-11-21T20:08:22.254Z,3.95
2022-11-21T20:10:50.229Z,3.03
2022-11-21T20:13:18.990Z,2.90
2022-11-21T20:15:46.901Z,3.80
2022-11-21T20:18:40.526Z,3.40
2022-11-21T20:21:09.808Z,3.13
2022-11-21T20:23:39.913Z,3.28
2022-11-21T20:26:08.174Z,4.15
2022-11-21T20:28:38.101Z,3.22
2022-11-21T20:31:07.387Z,3.83
2022-11-21T20:33:55.223Z,4.03
2022-11-21T20:36:23.823Z,4.55
2022-11-21T20:38:54.767Z,3.47
2022-11-21T20:41:23.721Z,3.55
2022-11-21T20:44:44.691Z,4.13
2022-11-21T20:46:44.108Z,6.18
2022-11-21T20:49:13.291Z,4.40
2022-11-21T20:54:31.576Z,3.90
2022-11-21T20:56:59.798Z,4.03
2022-11-21T20:59:29.225Z,5.07
2022-11-21T21:01:57.586Z,4.38
2022-11-21T21:08:16.700Z,4.13
2022-11-21T21:11:05.159Z,4.35
2022-11-21T21:13:34.814Z,4.85
2022-11-21T21:16:06.846Z,3.83
2022-11-21T21:19:00.804Z,4.22
2022-11-21T21:21:30.546Z,4.05
2022-11-21T21:24:00.763Z,3.75
2022-11-21T21:26:31.233Z,3.80
2022-11-21T21:29:08.264Z,4.30
2022-11-21T21:31:36.225Z,4.10
2022-11-21T21:34:04.900Z,4.45
2022-11-21T21:36:32.827Z,4.63
2022-11-21T21:39:02.294Z,4.15
2022-11-21T21:41:32.025Z,4.47
2022-11-21T21:44:01.254Z,3.65
2022-11-21T21:46:29.168Z,4.85
2022-11-21T21:48:58.872Z,4.55
2022-11-21T21:51:27.495Z,5.38
2022-11-21T21:53:56.581Z,4.35
2022-11-21T21:56:24.854Z,4.47
2022-11-21T21:58:55.358Z,5.07
2022-11-21T22:01:23.998Z,4.85
2022-11-21T22:03:54.509Z,4.75
2022-11-21T22:06:22.401Z,6.07
2022-11-21T22:08:52.273Z,5.60
2022-11-21T22:11:21.373Z,6.57
2022-11-21T22:13:50.640Z,5.47
2022-11-21T22:16:20.008Z,5.15
2022-11-21T22:18:48.372Z,5.95
2022-11-21T22:21:16.236Z,6.05
2022-11-21T22:24:02.833Z,4.95
2022-11-21T22:26:32.898Z,5.13
2022-11-21T22:29:02.671Z,5.35
2022-11-21T22:31:32.235Z,6.20
2022-11-21T22:42:20.297Z,5.20
2022-11-21T22:44:50.017Z,4.85
2022-11-21T22:47:19.291Z,5.10
2022-11-21T22:50:00.265Z,5.57
2022-11-21T22:52:28.184Z,4.25
2022-11-21T22:54:56.762Z,6.95
2022-11-21T22:57:24.724Z,4.57
2022-11-21T22:59:54.501Z,5.15
2022-11-21T23:02:23.884Z,4.55
2022-11-21T23:08:43.916Z,4.88
2022-11-21T23:11:12.826Z,4.45
2022-11-21T23:13:41.601Z,4.90
2022-11-21T23:16:09.710Z,4.40
2022-11-21T23:18:39.062Z,5.78
2022-11-21T23:21:07.111Z,4.68
2022-11-21T23:23:35.122Z,4.93
2022-11-21T23:26:03.056Z,4.75
2022-11-21T23:28:32.415Z,4.47
2022-11-21T23:31:00.462Z,4.47
2022-11-21T23:33:28.442Z,4.43
2022-11-21T23:35:59.498Z,4.90
2022-11-21T23:38:27.372Z,4.93
2022-11-21T23:40:55.368Z,3.85
2022-11-21T23:43:23.357Z,4.13
2022-11-21T23:45:51.743Z,4.40
2022-11-21T23:48:20.076Z,4.18
2022-11-21T23:50:51.008Z,4.15
2022-11-21T23:53:20.975Z,4.32
2022-11-21T23:55:49.928Z,4.35
2022-11-21T23:58:17.862Z,4.43
